createdAt,value
2022-12-15T00:00:34.926Z,6.89
2022-12-15T00:03:25.940Z,6.89
2022-12-15T00:06:12.047Z,6.88
2022-12-15T00:08:58.879Z,6.88
2022-12-15T00:11:44.491Z,6.86
2022-12-15T00:14:30.170Z,6.86
2022-12-15T00:17:17.539Z,6.87
2022-12-15T00:20:02.994Z,6.86
2022-12-15T00:22:48.705Z,6.83
2022-12-15T00:25:34.686Z,6.81
2022-12-15T00:28:20.710Z,6.81
2022-12-15T00:31:06.589Z,6.81
2022-12-15T00:33:53.840Z,6.80
2022-12-15T00:36:39.722Z,6.79
2022-12-15T00:39:08.098Z,6.78
2022-12-15T00:41:36.467Z,6.80
2022-12-15T00:44:05.072Z,6.80
2022-12-15T00:46:53.436Z,6.83
2022-12-15T00:49:40.874Z,6.89
2022-12-15T00:52:26.863Z,6.93
2022-12-15T00:55:12.573Z,6.98
2022-12-15T00:57:58.742Z,7.02
2022-12-15T01:00:45.270Z,7.01
2022-12-15T01:03:33.992Z,7.02
2022-12-15T01:06:25.213Z,7.05
2022-12-15T01:09:11.300Z,7.07
2022-12-15T01:11:57.287Z,7.10
2022-12-15T01:14:43.874Z,7.13
2022-12-15T01:17:30.311Z,7.18
2022-12-15T01:20:16.173Z,7.19
2022-12-15T01:22:46.962Z,7.20
2022-12-15T01:25:17.587Z,7.24
2022-12-15T01:27:46.708Z,7.29
2022-12-15T01:30:17.956Z,7.28
2022-12-15T01:32:46.661Z,7.31
2022-12-15T01:35:15.713Z,7.33
2022-12-15T01:37:45.993Z,7.38
2022-12-15T01:40:39.216Z,7.38
2022-12-15T01:43:14.520Z,7.38
2022-12-15T01:46:05.876Z,7.39
2022-12-15T01:48:44.149Z,7.42
2022-12-15T01:51:19.363Z,7.43
2022-12-15T01:54:00.713Z,7.46
2022-12-15T01:56:36.882Z,7.47
2022-12-15T01:59:08.827Z,7.47
2022-12-15T02:01:37.409Z,7.46
2022-12-15T02:04:06.302Z,7.48
2022-12-15T02:06:34.899Z,7.48
2022-12-15T02:09:05.831Z,7.45
2022-12-15T02:12:02.135Z,7.41
2022-12-15T02:14:48.945Z,7.36
2022-12-15T02:17:30.713Z,7.33
2022-12-15T02:20:42.638Z,7.30
2022-12-15T02:23:56.511Z,7.30
2022-12-15T02:27:20.891Z,7.31
2022-12-15T02:30:27.422Z,7.30
2022-12-15T02:33:16.275Z,7.30
2022-12-15T02:35:57.257Z,7.30
2022-12-15T02:38:34.865Z,7.31
2022-12-15T02:41:05.850Z,7.31
2022-12-15T02:43:38.914Z,7.32
2022-12-15T02:46:19.864Z,7.31
2022-12-15T02:49:01.463Z,7.34
2022-12-15T02:51:44.948Z,7.36
2022-12-15T02:54:53.368Z,7.36
2022-12-15T02:57:32.808Z,7.38
2022-12-15T03:00:06.958Z,7.38
2022-12-15T03:02:40.510Z,7.42
2022-12-15T03:05:10.517Z,7.45
2022-12-15T03:07:38.990Z,7.44
2022-12-15T03:10:09.035Z,7.40
2022-12-15T03:12:37.422Z,7.37
2022-12-15T03:15:07.260Z,7.37
2022-12-15T03:17:38.359Z,7.37
2022-12-15T03:20:09.004Z,7.39
2022-12-15T03:22:37.771Z,7.42
2022-12-15T03:25:07.311Z,7.42
2022-12-15T03:27:37.903Z,7.41
2022-12-15T03:30:08.691Z,7.41
2022-12-15T03:32:38.421Z,7.39
2022-12-15T03:35:08.525Z,7.38
2022-12-15T03:37:36.976Z,7.39
2022-12-15T03:40:06.511Z,7.39
2022-12-15T03:42:49.576Z,7.40
2022-12-15T03:45:19.289Z,7.39
2022-12-15T03:47:50.066Z,7.44
2022-12-15T03:50:21.698Z,7.43
2022-12-15T03:52:53.253Z,7.44
2022-12-15T03:55:22.674Z,7.42
2022-12-15T03:57:52.115Z,7.42
2022-12-15T04:00:22.437Z,7.43
2022-12-15T04:02:52.805Z,7.45
2022-12-15T04:05:25.765Z,7.46
2022-12-15T04:07:54.699Z,7.47
2022-12-15T04:10:27.428Z,7.46
2022-12-15T04:13:00.616Z,7.42
2022-12-15T04:15:29.962Z,7.38
2022-12-15T04:17:59.852Z,7.36
2022-12-15T04:20:27.209Z,7.33
2022-12-15T04:22:55.863Z,7.32
2022-12-15T04:25:43.918Z,7.33
2022-12-15T04:28:31.785Z,7.33
2022-12-15T04:31:25.198Z,7.32
2022-12-15T04:34:16.274Z,7.30
2022-12-15T04:37:04.891Z,7.31
2022-12-15T04:39:50.466Z,7.27
2022-12-15T04:42:37.906Z,7.28
2022-12-15T04:45:26.524Z,7.26
2022-12-15T04:48:12.358Z,7.25
2022-12-15T04:50:59.442Z,7.26
2022-12-15T04:53:45.178Z,7.23
2022-12-15T04:56:33.137Z,7.20
2022-12-15T04:59:19.774Z,7.18
2022-12-15T05:02:07.071Z,7.16
2022-12-15T05:04:53.062Z,7.14
2022-12-15T05:07:40.050Z,7.14
2022-12-15T05:10:27.216Z,7.13
2022-12-15T05:13:13.364Z,7.15
2022-12-15T05:15:59.082Z,7.18
2022-12-15T05:18:45.082Z,7.19
2022-12-15T05:21:30.931Z,7.21
2022-12-15T05:24:18.067Z,7.24
2022-12-15T05:27:03.902Z,7.27
2022-12-15T05:29:49.426Z,7.29
2022-12-15T05:32:17.746Z,7.31
2022-12-15T05:34:46.145Z,7.36
2022-12-15T05:37:14.512Z,7.42
2022-12-15T05:39:44.250Z,7.45
2022-12-15T05:42:12.597Z,7.48
2022-12-15T05:44:40.976Z,7.49
2022-12-15T05:47:09.525Z,7.50
2022-12-15T05:49:37.924Z,7.50
2022-12-15T05:52:07.339Z,7.50
2022-12-15T05:54:35.785Z,7.49
2022-12-15T05:57:05.702Z,7.50
2022-12-15T05:59:34.104Z,7.50
2022-12-15T06:02:02.530Z,7.52
2022-12-15T06:04:31.530Z,7.53
2022-12-15T06:06:59.917Z,7.54
2022-12-15T06:09:29.092Z,7.53
2022-12-15T06:11:57.455Z,7.50
2022-12-15T06:14:27.177Z,7.48
2022-12-15T06:16:55.985Z,7.48
2022-12-15T06:19:24.590Z,7.49
2022-12-15T06:21:52.926Z,7.49
2022-12-15T06:24:21.274Z,7.48
2022-12-15T06:26:50.075Z,7.45
2022-12-15T06:29:19.044Z,7.43
2022-12-15T06:31:48.847Z,7.41
2022-12-15T06:34:18.734Z,7.40
2022-12-15T06:36:47.387Z,7.41
2022-12-15T06:39:17.188Z,7.41
2022-12-15T06:41:46.063Z,7.44
2022-12-15T06:44:16.314Z,7.47
2022-12-15T06:46:46.226Z,7.50
2022-12-15T06:49:16.082Z,7.51
2022-12-15T06:51:45.146Z,7.52
2022-12-15T06:54:13.918Z,7.53
2022-12-15T06:56:42.600Z,7.53
2022-12-15T06:59:12.913Z,7.53
2022-12-15T07:01:41.773Z,7.54
2022-12-15T07:04:11.437Z,7.55
2022-12-15T07:06:42.465Z,7.54
2022-12-15T07:09:17.229Z,7.55
2022-12-15T07:11:46.502Z,7.55
2022-12-15T07:14:14.825Z,7.55
2022-12-15T07:16:43.269Z,7.53
2022-12-15T07:19:13.464Z,7.51
2022-12-15T07:21:43.431Z,7.46
2022-12-15T07:24:13.141Z,7.46
2022-12-15T07:26:41.898Z,7.45
2022-12-15T07:29:11.898Z,7.47
2022-12-15T07:31:40.361Z,7.48
2022-12-15T07:34:08.918Z,7.49
2022-12-15T07:36:37.334Z,7.50
2022-12-15T07:39:10.415Z,7.51
2022-12-15T07:41:40.444Z,7.57
2022-12-15T07:44:08.969Z,7.61
2022-12-15T07:46:37.587Z,7.65
2022-12-15T07:49:05.990Z,7.66
2022-12-15T07:51:34.343Z,7.68
2022-12-15T07:54:02.707Z,7.70
2022-12-15T07:56:38.900Z,7.74
2022-12-15T07:59:09.153Z,7.79
2022-12-15T08:01:37.729Z,7.87
2022-12-15T08:04:06.963Z,7.93
2022-12-15T08:06:35.475Z,8.00
2022-12-15T08:09:03.906Z,8.06
2022-12-15T08:11:35.625Z,8.11
2022-12-15T08:14:06.924Z,8.15
2022-12-15T08:16:37.579Z,8.17
2022-12-15T08:19:07.399Z,8.15
2022-12-15T08:21:35.936Z,8.14
2022-12-15T08:24:04.518Z,8.14
2022-12-15T08:26:34.267Z,8.16
2022-12-15T08:29:49.027Z,8.19
2022-12-15T08:31:53.942Z,8.22
2022-12-15T08:34:22.680Z,8.27
2022-12-15T08:36:51.742Z,8.33
2022-12-15T08:39:20.512Z,8.40
2022-12-15T08:41:51.866Z,8.45
2022-12-15T08:44:20.349Z,8.51
2022-12-15T08:46:48.698Z,8.53
2022-12-15T08:49:21.735Z,8.56
2022-12-15T08:51:50.900Z,8.60
2022-12-15T08:54:20.595Z,8.66
2022-12-15T08:56:50.997Z,8.71
2022-12-15T08:59:20.219Z,8.75
2022-12-15T09:01:48.919Z,8.77
2022-12-15T09:04:18.078Z,8.79
2022-12-15T09:06:46.810Z,8.80
2022-12-15T09:09:19.922Z,8.80
2022-12-15T09:11:50.110Z,8.80
2022-12-15T09:14:24.184Z,8.81
2022-12-15T09:16:57.292Z,8.81
2022-12-15T09:19:26.053Z,8.83
2022-12-15T09:21:54.587Z,8.85
2022-12-15T09:24:33.904Z,8.86
2022-12-15T09:27:04.920Z,8.88
2022-12-15T09:29:34.261Z,9.00
2022-12-15T09:32:05.548Z,9.03
2022-12-15T09:34:37.885Z,9.09
2022-12-15T09:37:06.359Z,9.16
2022-12-15T09:39:34.779Z,9.19
2022-12-15T09:42:04.682Z,9.24
2022-12-15T09:44:34.234Z,9.27
2022-12-15T09:47:17.574Z,9.29
2022-12-15T09:49:57.703Z,9.32
2022-12-15T09:52:30.095Z,9.33
2022-12-15T09:54:59.497Z,9.33
2022-12-15T09:57:38.398Z,9.30
2022-12-15T10:00:22.013Z,9.32
2022-12-15T10:03:36.574Z,9.37
2022-12-15T10:06:17.338Z,9.46
2022-12-15T10:08:51.774Z,9.56
2022-12-15T10:11:50.323Z,9.66
2022-12-15T10:14:32.070Z,9.72
2022-12-15T10:17:10.411Z,9.81
2022-12-15T10:19:44.609Z,9.92
2022-12-15T10:22:21.525Z,10.03
2022-12-15T10:28:12.002Z,10.12
2022-12-15T10:30:52.029Z,10.14
2022-12-15T10:33:24.189Z,10.17
2022-12-15T10:35:55.056Z,10.19
2022-12-15T10:38:34.314Z,10.15
2022-12-15T10:41:06.100Z,10.09
2022-12-15T10:43:37.656Z,10.03
2022-12-15T10:46:15.013Z,10.02
2022-12-15T10:51:37.209Z,9.99
2022-12-15T10:54:13.200Z,9.96
2022-12-15T10:56:51.026Z,9.93
2022-12-15T10:59:30.886Z,9.92
2022-12-15T11:02:28.673Z,9.91
2022-12-15T11:04:58.173Z,9.97
2022-12-15T11:07:38.903Z,10.00
2022-12-15T11:10:22.311Z,10.05
2022-12-15T11:13:13.108Z,10.12
2022-12-15T11:15:45.902Z,10.20
2022-12-15T11:18:39.694Z,10.22
2022-12-15T11:21:15.654Z,10.21
2022-12-15T11:23:57.118Z,10.19
2022-12-15T11:26:41.706Z,10.22
2022-12-15T11:29:22.373Z,10.23
2022-12-15T11:31:52.556Z,10.27
2022-12-15T11:34:26.154Z,10.26
2022-12-15T11:37:34.206Z,10.25
2022-12-15T11:40:34.365Z,10.23
2022-12-15T11:43:36.247Z,10.19
2022-12-15T11:46:23.933Z,10.10
2022-12-15T11:49:20.650Z,10.08
2022-12-15T11:51:58.987Z,10.08
2022-12-15T11:54:34.330Z,10.07
2022-12-15T11:57:18.942Z,10.06
2022-12-15T12:00:06.056Z,10.05
2022-12-15T12:02:57.934Z,10.05
2022-12-15T12:05:39.394Z,10.04
2022-12-15T12:08:31.302Z,10.05
2022-12-15T12:11:07.387Z,10.04
2022-12-15T12:13:54.170Z,10.05
2022-12-15T12:16:35.605Z,10.22
2022-12-15T12:19:10.460Z,10.19
2022-12-15T12:21:44.633Z,10.12
2022-12-15T12:24:25.214Z,10.05
2022-12-15T12:27:00.013Z,10.00
2022-12-15T12:29:35.108Z,9.93
2022-12-15T12:32:12.593Z,9.88
2022-12-15T12:35:31.859Z,9.85
2022-12-15T12:37:52.580Z,9.84
2022-12-15T12:40:32.732Z,9.82
2022-12-15T12:43:01.739Z,9.98
2022-12-15T12:45:38.639Z,9.92
2022-12-15T12:48:16.146Z,10.01
2022-12-15T12:50:44.709Z,9.93
2022-12-15T12:53:33.838Z,9.83
2022-12-15T12:56:03.897Z,9.76
2022-12-15T12:58:35.716Z,9.71
2022-12-15T13:01:21.171Z,9.64
2022-12-15T13:04:08.580Z,9.59
2022-12-15T13:07:06.801Z,9.55
2022-12-15T13:09:42.407Z,9.50
2022-12-15T13:12:54.118Z,9.42
2022-12-15T13:15:40.886Z,9.38
2022-12-15T13:18:16.946Z,9.36
2022-12-15T13:20:48.948Z,9.32
2022-12-15T13:23:41.269Z,9.29
2022-12-15T13:26:19.657Z,9.27
2022-12-15T13:28:53.507Z,9.26
2022-12-15T13:31:45.537Z,9.28
2022-12-15T13:34:25.560Z,9.28
2022-12-15T13:37:02.284Z,9.30
2022-12-15T13:39:59.308Z,9.25
2022-12-15T13:42:47.285Z,9.21
2022-12-15T13:45:54.821Z,9.14
2022-12-15T13:48:36.264Z,9.15
2022-12-15T13:51:26.923Z,9.11
2022-12-15T13:54:01.031Z,9.05
2022-12-15T13:56:50.854Z,9.04
2022-12-15T13:59:35.225Z,9.02
2022-12-15T14:02:23.446Z,9.02
2022-12-15T14:05:14.453Z,8.95
2022-12-15T14:07:52.666Z,8.92
2022-12-15T14:10:28.406Z,8.88
2022-12-15T14:12:59.408Z,8.88
2022-12-15T14:15:31.703Z,8.88
2022-12-15T14:18:03.369Z,8.88
2022-12-15T14:20:39.952Z,8.86
2022-12-15T14:23:20.553Z,8.81
2022-12-15T14:25:58.600Z,8.78
2022-12-15T14:28:33.397Z,8.78
2022-12-15T14:31:06.256Z,8.78
2022-12-15T14:33:39.819Z,8.75
2022-12-15T14:36:12.530Z,8.75
2022-12-15T14:38:49.040Z,8.71
2022-12-15T14:41:23.777Z,8.69
2022-12-15T14:46:48.396Z,8.72
2022-12-15T14:49:23.141Z,8.71
2022-12-15T14:51:58.256Z,8.72
2022-12-15T14:54:35.670Z,8.70
2022-12-15T14:57:15.381Z,8.70
2022-12-15T14:59:46.523Z,8.70
2022-12-15T15:02:23.180Z,8.69
2022-12-15T15:03:09.675Z,10.04
2022-12-15T15:03:15.602Z,8.71
2022-12-15T15:05:04.016Z,8.67
2022-12-15T15:07:34.195Z,8.66
2022-12-15T15:10:04.142Z,8.64
2022-12-15T15:12:46.000Z,8.63
2022-12-15T15:15:19.247Z,8.60
2022-12-15T15:17:52.981Z,8.58
2022-12-15T15:20:27.580Z,8.58
2022-12-15T15:23:17.716Z,8.57
2022-12-15T15:25:51.962Z,8.55
2022-12-15T15:28:26.840Z,8.54
2022-12-15T15:30:57.678Z,8.52
2022-12-15T15:33:27.436Z,8.48
2022-12-15T15:36:00.399Z,8.42
2022-12-15T15:38:33.683Z,8.36
2022-12-15T15:41:13.284Z,8.31
2022-12-15T15:43:42.193Z,8.29
2022-12-15T15:46:16.312Z,8.28
2022-12-15T15:48:49.157Z,8.31
2022-12-15T15:51:19.849Z,8.30
2022-12-15T15:53:48.856Z,8.29
2022-12-15T15:56:18.771Z,8.28
2022-12-15T15:58:47.678Z,8.28
2022-12-15T16:01:16.119Z,8.30
2022-12-15T16:03:44.750Z,8.30
2022-12-15T16:06:21.148Z,8.31
2022-12-15T16:08:53.692Z,8.33
2022-12-15T16:11:23.962Z,8.31
2022-12-15T16:13:52.404Z,8.29
2022-12-15T16:16:25.231Z,8.28
2022-12-15T16:18:53.639Z,8.48
2022-12-15T16:21:27.229Z,8.42
2022-12-15T16:23:57.012Z,8.42
2022-12-15T16:26:30.437Z,8.40
2022-12-15T16:28:58.997Z,8.41
2022-12-15T16:31:37.285Z,8.39
2022-12-15T16:34:09.354Z,8.39
2022-12-15T16:36:39.496Z,8.37
2022-12-15T16:39:26.928Z,8.35
2022-12-15T16:41:56.958Z,8.32
2022-12-15T16:44:27.034Z,8.29
2022-12-15T16:46:55.649Z,8.28
2022-12-15T16:49:24.904Z,8.25
2022-12-15T16:51:55.378Z,8.24
2022-12-15T16:54:27.292Z,8.21
2022-12-15T16:56:58.227Z,8.18
2022-12-15T16:59:33.392Z,8.18
2022-12-15T17:02:03.365Z,8.17
2022-12-15T17:04:32.484Z,8.16
2022-12-15T17:07:02.639Z,8.14
2022-12-15T17:09:36.789Z,8.13
2022-12-15T17:12:06.046Z,8.09
2022-12-15T17:14:34.617Z,8.09
2022-12-15T17:17:06.727Z,8.10
2022-12-15T17:19:35.285Z,8.11
2022-12-15T17:22:05.136Z,8.14
2022-12-15T17:24:34.837Z,8.10
2022-12-15T17:27:03.501Z,8.08
2022-12-15T17:29:32.455Z,8.09
2022-12-15T17:32:01.428Z,8.09
2022-12-15T17:34:32.865Z,8.07
2022-12-15T17:37:04.728Z,8.06
2022-12-15T17:39:39.668Z,8.05
2022-12-15T17:42:20.850Z,8.01
2022-12-15T17:44:56.341Z,8.00
2022-12-15T17:47:31.983Z,7.97
2022-12-15T17:50:01.087Z,7.93
2022-12-15T17:52:34.754Z,7.90
2022-12-15T17:55:20.358Z,7.88
2022-12-15T17:57:49.140Z,7.88
2022-12-15T18:00:23.028Z,7.87
2022-12-15T18:02:51.970Z,7.84
2022-12-15T18:05:23.109Z,7.80
2022-12-15T18:07:54.807Z,7.79
2022-12-15T18:10:37.989Z,7.77
2022-12-15T18:13:18.281Z,7.74
2022-12-15T18:15:49.010Z,7.73
2022-12-15T18:18:19.027Z,7.69
2022-12-15T18:20:47.607Z,7.68
2022-12-15T18:23:18.482Z,7.67
2022-12-15T18:26:03.070Z,7.66
2022-12-15T18:28:35.845Z,7.66
2022-12-15T18:31:16.477Z,7.64
2022-12-15T18:33:45.863Z,7.65
2022-12-15T18:36:19.450Z,7.65
2022-12-15T18:38:48.259Z,7.66
2022-12-15T18:41:21.339Z,7.67
2022-12-15T18:43:52.365Z,7.68
2022-12-15T18:46:24.937Z,7.65
2022-12-15T18:48:55.973Z,7.65
2022-12-15T18:51:26.417Z,7.65
2022-12-15T18:53:55.664Z,7.65
2022-12-15T18:56:26.651Z,7.66
2022-12-15T18:58:55.333Z,7.65
2022-12-15T19:01:25.478Z,7.63
2022-12-15T19:03:54.934Z,7.61
2022-12-15T19:06:36.046Z,7.58
2022-12-15T19:09:06.561Z,7.57
2022-12-15T19:11:38.266Z,7.57
2022-12-15T19:14:35.529Z,7.56
2022-12-15T19:17:23.136Z,7.53
2022-12-15T19:20:10.378Z,7.52
2022-12-15T19:22:39.848Z,7.51
2022-12-15T19:25:13.805Z,7.50
2022-12-15T19:27:44.568Z,7.50
2022-12-15T19:30:18.485Z,7.49
2022-12-15T19:32:48.271Z,7.49
2022-12-15T19:35:19.148Z,7.50
2022-12-15T19:37:49.983Z,7.49
2022-12-15T19:40:22.665Z,7.49
2022-12-15T19:42:55.523Z,7.50
2022-12-15T19:45:27.908Z,7.48
2022-12-15T19:47:58.737Z,7.50
2022-12-15T19:50:33.669Z,7.50
2022-12-15T19:53:10.222Z,7.51
2022-12-15T19:55:40.517Z,7.52
2022-12-15T19:58:30.535Z,7.49
2022-12-15T20:01:02.913Z,7.50
2022-12-15T20:03:32.798Z,7.52
2022-12-15T20:06:05.143Z,7.54
2022-12-15T20:08:39.529Z,7.57
2022-12-15T20:11:16.680Z,7.58
2022-12-15T20:13:48.480Z,7.58
2022-12-15T20:16:19.254Z,7.57
2022-12-15T20:18:49.030Z,7.58
2022-12-15T20:21:22.241Z,7.58
2022-12-15T20:23:56.356Z,7.57
2022-12-15T20:26:26.066Z,7.56
2022-12-15T20:28:56.959Z,7.59
2022-12-15T20:31:26.911Z,7.60
2022-12-15T20:33:56.856Z,7.59
2022-12-15T20:36:31.531Z,7.57
2022-12-15T20:39:02.139Z,7.57
2022-12-15T20:41:32.225Z,7.56
2022-12-15T20:44:09.977Z,7.55
2022-12-15T20:46:42.914Z,7.53
2022-12-15T20:49:17.745Z,7.53
2022-12-15T20:51:48.148Z,7.52
2022-12-15T20:54:20.604Z,7.51
2022-12-15T20:56:50.676Z,7.51
2022-12-15T20:59:22.010Z,7.52
2022-12-15T21:01:50.730Z,7.52
2022-12-15T21:04:26.754Z,7.53
2022-12-15T21:06:57.160Z,7.51
2022-12-15T21:09:26.405Z,7.52
2022-12-15T21:11:56.073Z,7.50
2022-12-15T21:14:26.134Z,7.50
2022-12-15T21:16:54.976Z,7.51
2022-12-15T21:19:24.294Z,7.53
2022-12-15T21:21:55.521Z,7.53
2022-12-15T21:24:27.529Z,7.52
2022-12-15T21:26:56.300Z,7.51
2022-12-15T21:29:29.388Z,7.48
2022-12-15T21:31:57.887Z,7.47
2022-12-15T21:34:26.380Z,7.46
2022-12-15T21:36:55.634Z,7.45
2022-12-15T21:39:29.721Z,7.44
2022-12-15T21:42:01.757Z,7.44
2022-12-15T21:44:31.605Z,7.42
2022-12-15T21:47:00.141Z,7.41
2022-12-15T21:49:27.523Z,7.40
2022-12-15T21:51:58.563Z,7.41
2022-12-15T21:54:31.713Z,7.40
2022-12-15T21:57:01.128Z,7.39
2022-12-15T21:59:33.206Z,7.37
2022-12-15T22:02:02.489Z,7.35
2022-12-15T22:04:34.955Z,7.34
2022-12-15T22:07:03.760Z,7.35
2022-12-15T22:09:32.153Z,7.34
2022-12-15T22:12:01.337Z,7.35
2022-12-15T22:14:34.463Z,7.34
2022-12-15T22:17:14.037Z,7.33
2022-12-15T22:19:42.399Z,7.32
2022-12-15T22:22:10.820Z,7.33
2022-12-15T22:24:39.420Z,7.35
2022-12-15T22:27:17.682Z,7.34
2022-12-15T22:29:47.704Z,7.35
2022-12-15T22:32:17.548Z,7.33
2022-12-15T22:34:45.927Z,7.31
2022-12-15T22:37:14.311Z,7.29
2022-12-15T22:39:42.660Z,7.25
2022-12-15T22:42:17.462Z,7.24
2022-12-15T22:44:47.522Z,7.22
2022-12-15T22:47:15.911Z,7.22
2022-12-15T22:49:44.403Z,7.21
2022-12-15T22:52:19.449Z,7.20
2022-12-15T22:54:48.366Z,7.19
2022-12-15T22:57:23.472Z,7.18
2022-12-15T23:00:00.701Z,7.18
2022-12-15T23:02:32.277Z,7.19
2022-12-15T23:05:00.729Z,7.20
2022-12-15T23:07:29.762Z,7.19
2022-12-15T23:10:12.030Z,7.17
2022-12-15T23:12:40.484Z,7.16
2022-12-15T23:15:29.563Z,7.15
2022-12-15T23:17:57.946Z,7.12
2022-12-15T23:20:26.899Z,7.13
2022-12-15T23:22:55.221Z,7.16
2022-12-15T23:25:23.712Z,7.18
2022-12-15T23:27:52.231Z,7.21
2022-12-15T23:30:22.135Z,7.24
2022-12-15T23:32:50.495Z,7.24
2022-12-15T23:35:23.576Z,7.23
2022-12-15T23:37:52.093Z,7.23
2022-12-15T23:40:22.368Z,7.22
2022-12-15T23:42:51.241Z,7.23
2022-12-15T23:45:22.118Z,7.20
2022-12-15T23:47:50.486Z,7.19
2022-12-15T23:50:19.545Z,7.17
2022-12-15T23:52:51.357Z,7.14
2022-12-15T23:55:20.477Z,7.13
2022-12-15T23:57:48.844Z,7.14
